sensor_id;sensor_type;location;lat;lon;timestamp;P1;durP1;ratioP1;P2;durP2;ratioP2
57025;SDS011;43961;52.940;6.834;2024-01-11T00:01:25;1377.87;;;999.90;;
57025;SDS011;43961;52.940;6.834;2024-01-11T00:03:51;1209.60;;;989.17;;
57025;SDS011;43961;52.940;6.834;2024-01-11T00:13:33;521.77;;;279.93;;
57025;SDS011;43961;52.940;6.834;2024-01-11T00:15:59;510.97;;;295.50;;
57025;SDS011;43961;52.940;6.834;2024-01-11T00:18:24;568.17;;;319.73;;
57025;SDS011;43961;52.940;6.834;2024-01-11T00:20:50;589.23;;;328.83;;
57025;SDS011;43961;52.940;6.834;2024-01-11T00:23:16;762.40;;;465.63;;
57025;SDS011;43961;52.940;6.834;2024-01-11T00:25:42;300.00;;;230.30;;
57025;SDS011;43961;52.940;6.834;2024-01-11T00:28:08;185.10;;;146.48;;
57025;SDS011;43961;52.940;6.834;2024-01-11T00:30:33;201.13;;;148.20;;
57025;SDS011;43961;52.940;6.834;2024-01-11T00:33:00;85.37;;;78.23;;
57025;SDS011;43961;52.940;6.834;2024-01-11T00:35:26;230.10;;;165.57;;
57025;SDS011;43961;52.940;6.834;2024-01-11T00:37:51;298.43;;;188.40;;
57025;SDS011;43961;52.940;6.834;2024-01-11T00:40:17;374.67;;;215.10;;
57025;SDS011;43961;52.940;6.834;2024-01-11T00:42:42;482.67;;;268.80;;
57025;SDS011;43961;52.940;6.834;2024-01-11T00:45:08;843.10;;;445.67;;
57025;SDS011;43961;52.940;6.834;2024-01-11T00:47:34;643.70;;;388.17;;
57025;SDS011;43961;52.940;6.834;2024-01-11T00:49:59;790.63;;;650.50;;
57025;SDS011;43961;52.940;6.834;2024-01-11T00:52:25;605.30;;;533.07;;
57025;SDS011;43961;52.940;6.834;2024-01-11T00:54:50;604.77;;;419.07;;
57025;SDS011;43961;52.940;6.834;2024-01-11T00:57:16;481.03;;;341.40;;
57025;SDS011;43961;52.940;6.834;2024-01-11T00:59:42;655.90;;;514.60;;
57025;SDS011;43961;52.940;6.834;2024-01-11T01:02:07;1535.20;;;999.90;;
57025;SDS011;43961;52.940;6.834;2024-01-11T01:04:33;633.70;;;348.73;;
57025;SDS011;43961;52.940;6.834;2024-01-11T01:07:02;667.60;;;354.67;;
57025;SDS011;43961;52.940;6.834;2024-01-11T01:09:27;693.63;;;374.27;;
57025;SDS011;43961;52.940;6.834;2024-01-11T01:11:53;809.17;;;515.37;;
57025;SDS011;43961;52.940;6.834;2024-01-11T01:14:19;1425.77;;;999.90;;
57025;SDS011;43961;52.940;6.834;2024-01-11T01:16:44;1324.70;;;999.90;;
57025;SDS011;43961;52.940;6.834;2024-01-11T01:19:11;1276.95;;;999.90;;
57025;SDS011;43961;52.940;6.834;2024-01-11T01:21:37;1110.77;;;997.27;;
57025;SDS011;43961;52.940;6.834;2024-01-11T01:24:02;479.03;;;303.50;;
57025;SDS011;43961;52.940;6.834;2024-01-11T01:26:28;775.20;;;409.63;;
57025;SDS011;43961;52.940;6.834;2024-01-11T01:28:54;848.03;;;732.87;;
57025;SDS011;43961;52.940;6.834;2024-01-11T01:31:19;512.90;;;280.57;;
57025;SDS011;43961;52.940;6.834;2024-01-11T01:33:46;500.17;;;276.07;;
57025;SDS011;43961;52.940;6.834;2024-01-11T01:36:11;446.23;;;252.33;;
57025;SDS011;43961;52.940;6.834;2024-01-11T01:38:37;507.80;;;275.40;;
57025;SDS011;43961;52.940;6.834;2024-01-11T01:41:03;620.43;;;331.97;;
57025;SDS011;43961;52.940;6.834;2024-01-11T01:43:28;658.70;;;358.40;;
57025;SDS011;43961;52.940;6.834;2024-01-11T01:45:54;547.03;;;301.63;;
57025;SDS011;43961;52.940;6.834;2024-01-11T01:48:20;505.83;;;283.47;;
57025;SDS011;43961;52.940;6.834;2024-01-11T01:50:46;533.47;;;290.23;;
57025;SDS011;43961;52.940;6.834;2024-01-11T01:53:21;462.27;;;252.60;;
57025;SDS011;43961;52.940;6.834;2024-01-11T01:55:50;646.70;;;341.07;;
57025;SDS011;43961;52.940;6.834;2024-01-11T01:58:17;479.73;;;269.20;;
57025;SDS011;43961;52.940;6.834;2024-01-11T02:00:43;519.53;;;286.73;;
57025;SDS011;43961;52.940;6.834;2024-01-11T02:03:10;554.93;;;290.77;;
57025;SDS011;43961;52.940;6.834;2024-01-11T02:05:37;520.07;;;286.93;;
57025;SDS011;43961;52.940;6.834;2024-01-11T02:08:03;526.13;;;277.93;;
57025;SDS011;43961;52.940;6.834;2024-01-11T02:10:33;343.60;;;202.27;;
57025;SDS011;43961;52.940;6.834;2024-01-11T02:13:00;604.73;;;325.37;;
57025;SDS011;43961;52.940;6.834;2024-01-11T02:15:26;641.43;;;330.20;;
57025;SDS011;43961;52.940;6.834;2024-01-11T02:17:51;771.67;;;434.07;;
57025;SDS011;43961;52.940;6.834;2024-01-11T02:20:17;687.67;;;370.67;;
57025;SDS011;43961;52.940;6.834;2024-01-11T02:22:44;734.33;;;400.60;;
57025;SDS011;43961;52.940;6.834;2024-01-11T02:25:14;693.47;;;347.83;;
57025;SDS011;43961;52.940;6.834;2024-01-11T02:27:47;604.60;;;329.33;;
57025;SDS011;43961;52.940;6.834;2024-01-11T02:30:13;652.03;;;353.73;;
57025;SDS011;43961;52.940;6.834;2024-01-11T02:32:39;691.93;;;365.37;;
57025;SDS011;43961;52.940;6.834;2024-01-11T02:35:05;686.50;;;365.77;;
57025;SDS011;43961;52.940;6.834;2024-01-11T02:37:32;758.17;;;411.33;;
57025;SDS011;43961;52.940;6.834;2024-01-11T02:39:57;732.47;;;393.77;;
57025;SDS011;43961;52.940;6.834;2024-01-11T02:42:23;696.27;;;371.43;;
57025;SDS011;43961;52.940;6.834;2024-01-11T02:44:49;714.20;;;375.53;;
57025;SDS011;43961;52.940;6.834;2024-01-11T02:47:14;721.57;;;383.70;;
57025;SDS011;43961;52.940;6.834;2024-01-11T02:49:40;731.93;;;396.23;;
57025;SDS011;43961;52.940;6.834;2024-01-11T02:52:06;769.20;;;421.30;;
57025;SDS011;43961;52.940;6.834;2024-01-11T02:54:31;776.73;;;426.17;;
57025;SDS011;43961;52.940;6.834;2024-01-11T02:56:57;763.30;;;405.23;;
57025;SDS011;43961;52.940;6.834;2024-01-11T02:59:23;733.40;;;380.00;;
57025;SDS011;43961;52.940;6.834;2024-01-11T03:01:49;758.87;;;414.57;;
57025;SDS011;43961;52.940;6.834;2024-01-11T03:04:14;725.00;;;387.87;;
57025;SDS011;43961;52.940;6.834;2024-01-11T03:06:40;670.33;;;351.83;;
57025;SDS011;43961;52.940;6.834;2024-01-11T03:09:06;650.33;;;344.03;;
57025;SDS011;43961;52.940;6.834;2024-01-11T03:11:32;645.13;;;346.27;;
57025;SDS011;43961;52.940;6.834;2024-01-11T03:13:57;632.80;;;341.60;;
57025;SDS011;43961;52.940;6.834;2024-01-11T03:16:23;686.30;;;356.97;;
57025;SDS011;43961;52.940;6.834;2024-01-11T03:18:48;795.27;;;432.47;;
57025;SDS011;43961;52.940;6.834;2024-01-11T03:21:15;828.10;;;463.40;;
57025;SDS011;43961;52.940;6.834;2024-01-11T03:23:40;818.73;;;469.77;;
57025;SDS011;43961;52.940;6.834;2024-01-11T03:26:16;700.83;;;383.10;;
57025;SDS011;43961;52.940;6.834;2024-01-11T03:28:43;638.90;;;349.80;;
57025;SDS011;43961;52.940;6.834;2024-01-11T03:31:09;835.93;;;444.77;;
57025;SDS011;43961;52.940;6.834;2024-01-11T03:33:35;778.30;;;432.33;;
57025;SDS011;43961;52.940;6.834;2024-01-11T03:36:10;857.27;;;440.87;;
57025;SDS011;43961;52.940;6.834;2024-01-11T03:38:37;891.40;;;475.17;;
57025;SDS011;43961;52.940;6.834;2024-01-11T03:41:09;868.57;;;456.03;;
57025;SDS011;43961;52.940;6.834;2024-01-11T03:43:38;807.97;;;435.93;;
57025;SDS011;43961;52.940;6.834;2024-01-11T03:48:30;842.23;;;435.67;;
57025;SDS011;43961;52.940;6.834;2024-01-11T03:50:57;819.50;;;432.43;;
57025;SDS011;43961;52.940;6.834;2024-01-11T03:53:22;772.70;;;419.27;;
57025;SDS011;43961;52.940;6.834;2024-01-11T03:55:48;749.80;;;413.10;;
57025;SDS011;43961;52.940;6.834;2024-01-11T03:58:14;781.33;;;433.50;;
57025;SDS011;43961;52.940;6.834;2024-01-11T04:00:39;737.93;;;384.87;;
57025;SDS011;43961;52.940;6.834;2024-01-11T04:03:06;669.40;;;352.40;;
57025;SDS011;43961;52.940;6.834;2024-01-11T04:05:31;592.93;;;317.23;;
57025;SDS011;43961;52.940;6.834;2024-01-11T04:07:57;577.53;;;308.33;;
57025;SDS011;43961;52.940;6.834;2024-01-11T04:10:23;577.83;;;309.30;;
57025;SDS011;43961;52.940;6.834;2024-01-11T04:12:48;660.57;;;360.07;;
57025;SDS011;43961;52.940;6.834;2024-01-11T04:15:14;752.07;;;386.03;;
57025;SDS011;43961;52.940;6.834;2024-01-11T04:17:40;729.90;;;369.00;;
57025;SDS011;43961;52.940;6.834;2024-01-11T04:20:06;659.70;;;339.73;;
57025;SDS011;43961;52.940;6.834;2024-01-11T04:22:33;716.10;;;366.23;;
57025;SDS011;43961;52.940;6.834;2024-01-11T04:24:59;655.47;;;344.67;;
57025;SDS011;43961;52.940;6.834;2024-01-11T04:27:25;683.50;;;356.00;;
57025;SDS011;43961;52.940;6.834;2024-01-11T04:29:51;802.23;;;464.33;;
57025;SDS011;43961;52.940;6.834;2024-01-11T04:32:16;786.63;;;404.03;;
57025;SDS011;43961;52.940;6.834;2024-01-11T04:34:42;776.67;;;420.60;;
57025;SDS011;43961;52.940;6.834;2024-01-11T04:37:07;745.63;;;390.40;;
57025;SDS011;43961;52.940;6.834;2024-01-11T04:39:33;842.97;;;459.17;;
57025;SDS011;43961;52.940;6.834;2024-01-11T04:41:59;852.27;;;449.83;;
57025;SDS011;43961;52.940;6.834;2024-01-11T04:44:25;711.73;;;361.70;;
57025;SDS011;43961;52.940;6.834;2024-01-11T04:46:52;701.20;;;360.77;;
57025;SDS011;43961;52.940;6.834;2024-01-11T04:49:18;671.87;;;344.07;;
57025;SDS011;43961;52.940;6.834;2024-01-11T04:51:43;803.33;;;424.33;;
57025;SDS011;43961;52.940;6.834;2024-01-11T04:54:09;839.37;;;454.07;;
57025;SDS011;43961;52.940;6.834;2024-01-11T04:56:35;792.47;;;438.00;;
57025;SDS011;43961;52.940;6.834;2024-01-11T04:59:00;760.47;;;396.20;;
57025;SDS011;43961;52.940;6.834;2024-01-11T05:01:26;750.27;;;391.33;;
57025;SDS011;43961;52.940;6.834;2024-01-11T05:03:51;715.13;;;373.20;;
57025;SDS011;43961;52.940;6.834;2024-01-11T05:06:20;912.93;;;466.13;;
57025;SDS011;43961;52.940;6.834;2024-01-11T05:08:47;779.70;;;411.13;;
57025;SDS011;43961;52.940;6.834;2024-01-11T05:11:23;704.73;;;363.77;;
57025;SDS011;43961;52.940;6.834;2024-01-11T05:13:50;743.77;;;390.37;;
57025;SDS011;43961;52.940;6.834;2024-01-11T05:16:18;872.87;;;427.27;;
57025;SDS011;43961;52.940;6.834;2024-01-11T05:18:47;768.63;;;410.73;;
57025;SDS011;43961;52.940;6.834;2024-01-11T05:21:13;775.97;;;391.70;;
57025;SDS011;43961;52.940;6.834;2024-01-11T05:23:40;858.50;;;422.57;;
57025;SDS011;43961;52.940;6.834;2024-01-11T05:26:07;830.95;;;411.63;;
57025;SDS011;43961;52.940;6.834;2024-01-11T05:28:33;816.90;;;423.50;;
57025;SDS011;43961;52.940;6.834;2024-01-11T05:30:59;773.00;;;383.20;;
57025;SDS011;43961;52.940;6.834;2024-01-11T05:33:25;736.87;;;379.47;;
57025;SDS011;43961;52.940;6.834;2024-01-11T05:35:50;698.00;;;360.40;;
57025;SDS011;43961;52.940;6.834;2024-01-11T05:38:17;633.77;;;330.57;;
57025;SDS011;43961;52.940;6.834;2024-01-11T05:40:42;711.70;;;354.83;;
57025;SDS011;43961;52.940;6.834;2024-01-11T05:43:08;872.67;;;451.60;;
57025;SDS011;43961;52.940;6.834;2024-01-11T05:45:34;756.93;;;400.53;;
57025;SDS011;43961;52.940;6.834;2024-01-11T05:48:00;744.78;;;391.75;;
57025;SDS011;43961;52.940;6.834;2024-01-11T05:50:25;805.43;;;431.67;;
57025;SDS011;43961;52.940;6.834;2024-01-11T05:52:51;682.73;;;365.77;;
57025;SDS011;43961;52.940;6.834;2024-01-11T05:55:18;697.78;;;385.05;;
57025;SDS011;43961;52.940;6.834;2024-01-11T05:57:46;150.30;;;126.77;;
57025;SDS011;43961;52.940;6.834;2024-01-11T06:00:12;431.53;;;255.30;;
57025;SDS011;43961;52.940;6.834;2024-01-11T06:05:03;755.30;;;391.20;;
57025;SDS011;43961;52.940;6.834;2024-01-11T06:07:29;451.73;;;265.33;;
57025;SDS011;43961;52.940;6.834;2024-01-11T06:09:55;811.80;;;436.97;;
57025;SDS011;43961;52.940;6.834;2024-01-11T06:12:20;787.57;;;414.60;;
57025;SDS011;43961;52.940;6.834;2024-01-11T06:14:46;897.73;;;476.30;;
57025;SDS011;43961;52.940;6.834;2024-01-11T06:17:11;937.17;;;698.13;;
57025;SDS011;43961;52.940;6.834;2024-01-11T06:19:37;601.43;;;354.90;;
57025;SDS011;43961;52.940;6.834;2024-01-11T06:22:06;580.87;;;313.20;;
57025;SDS011;43961;52.940;6.834;2024-01-11T06:24:31;666.47;;;349.00;;
57025;SDS011;43961;52.940;6.834;2024-01-11T06:26:57;682.40;;;358.20;;
57025;SDS011;43961;52.940;6.834;2024-01-11T06:29:23;428.97;;;239.90;;
57025;SDS011;43961;52.940;6.834;2024-01-11T06:31:48;380.87;;;219.37;;
57025;SDS011;43961;52.940;6.834;2024-01-11T06:34:14;468.00;;;256.97;;
57025;SDS011;43961;52.940;6.834;2024-01-11T06:36:40;368.13;;;212.83;;
57025;SDS011;43961;52.940;6.834;2024-01-11T06:39:05;352.33;;;201.83;;
57025;SDS011;43961;52.940;6.834;2024-01-11T06:41:31;369.80;;;215.63;;
57025;SDS011;43961;52.940;6.834;2024-01-11T06:43:56;356.87;;;204.90;;
57025;SDS011;43961;52.940;6.834;2024-01-11T06:46:22;313.03;;;189.27;;
57025;SDS011;43961;52.940;6.834;2024-01-11T06:48:48;266.02;;;193.95;;
57025;SDS011;43961;52.940;6.834;2024-01-11T06:51:20;368.93;;;214.07;;
57025;SDS011;43961;52.940;6.834;2024-01-11T06:53:46;311.92;;;194.45;;
57025;SDS011;43961;52.940;6.834;2024-01-11T06:56:15;401.90;;;226.67;;
57025;SDS011;43961;52.940;6.834;2024-01-11T06:58:43;128.83;;;115.17;;
57025;SDS011;43961;52.940;6.834;2024-01-11T07:06:01;413.15;;;204.73;;
57025;SDS011;43961;52.940;6.834;2024-01-11T07:08:28;246.48;;;166.90;;
57025;SDS011;43961;52.940;6.834;2024-01-11T07:10:53;248.00;;;161.15;;
57025;SDS011;43961;52.940;6.834;2024-01-11T07:13:19;279.60;;;172.27;;
57025;SDS011;43961;52.940;6.834;2024-01-11T07:15:44;296.13;;;176.65;;
57025;SDS011;43961;52.940;6.834;2024-01-11T07:18:10;221.67;;;175.53;;
57025;SDS011;43961;52.940;6.834;2024-01-11T07:20:36;268.70;;;171.82;;
57025;SDS011;43961;52.940;6.834;2024-01-11T07:25:27;572.33;;;275.40;;
57025;SDS011;43961;52.940;6.834;2024-01-11T07:27:53;271.33;;;167.27;;
57025;SDS011;43961;52.940;6.834;2024-01-11T07:30:19;260.97;;;165.27;;
57025;SDS011;43961;52.940;6.834;2024-01-11T07:32:44;220.45;;;152.20;;
57025;SDS011;43961;52.940;6.834;2024-01-11T07:35:10;180.23;;;136.07;;
57025;SDS011;43961;52.940;6.834;2024-01-11T07:37:37;188.77;;;139.40;;
57025;SDS011;43961;52.940;6.834;2024-01-11T07:40:06;223.55;;;155.85;;
57025;SDS011;43961;52.940;6.834;2024-01-11T07:42:39;215.10;;;150.02;;
57025;SDS011;43961;52.940;6.834;2024-01-11T07:45:05;251.93;;;165.63;;
57025;SDS011;43961;52.940;6.834;2024-01-11T07:47:32;179.60;;;133.23;;
57025;SDS011;43961;52.940;6.834;2024-01-11T07:49:58;220.43;;;151.60;;
57025;SDS011;43961;52.940;6.834;2024-01-11T07:52:24;167.27;;;129.60;;
57025;SDS011;43961;52.940;6.834;2024-01-11T08:02:06;246.43;;;154.20;;
57025;SDS011;43961;52.940;6.834;2024-01-11T08:06:58;179.40;;;135.10;;
57025;SDS011;43961;52.940;6.834;2024-01-11T08:09:24;209.43;;;148.25;;
57025;SDS011;43961;52.940;6.834;2024-01-11T08:11:51;95.53;;;87.63;;
57025;SDS011;43961;52.940;6.834;2024-01-11T08:21:39;945.10;;;850.45;;
57025;SDS011;43961;52.940;6.834;2024-01-11T09:02:57;382.23;;;212.73;;
57025;SDS011;43961;52.940;6.834;2024-01-11T09:10:14;403.50;;;220.83;;
57025;SDS011;43961;52.940;6.834;2024-01-11T09:12:39;265.53;;;163.50;;
57025;SDS011;43961;52.940;6.834;2024-01-11T09:17:31;645.78;;;497.63;;
57025;SDS011;43961;52.940;6.834;2024-01-11T09:19:57;509.02;;;232.10;;
57025;SDS011;43961;52.940;6.834;2024-01-11T09:22:23;493.17;;;222.60;;
57025;SDS011;43961;52.940;6.834;2024-01-11T09:24:48;308.07;;;160.03;;
57025;SDS011;43961;52.940;6.834;2024-01-11T09:29:44;478.00;;;211.32;;
57025;SDS011;43961;52.940;6.834;2024-01-11T09:32:10;359.63;;;183.50;;
57025;SDS011;43961;52.940;6.834;2024-01-11T09:34:37;333.42;;;180.30;;
57025;SDS011;43961;52.940;6.834;2024-01-11T09:39:28;1169.72;;;999.90;;
57025;SDS011;43961;52.940;6.834;2024-01-11T09:41:58;839.77;;;753.93;;
57025;SDS011;43961;52.940;6.834;2024-01-11T09:44:27;872.73;;;786.43;;
57025;SDS011;43961;52.940;6.834;2024-01-11T09:46:55;925.83;;;837.70;;
57025;SDS011;43961;52.940;6.834;2024-01-11T09:49:23;954.67;;;865.13;;
57025;SDS011;43961;52.940;6.834;2024-01-11T09:51:48;945.17;;;855.63;;
57025;SDS011;43961;52.940;6.834;2024-01-11T09:54:15;885.33;;;798.47;;
57025;SDS011;43961;52.940;6.834;2024-01-11T09:56:46;882.27;;;796.73;;
57025;SDS011;43961;52.940;6.834;2024-01-11T09:59:11;791.97;;;709.80;;
57025;SDS011;43961;52.940;6.834;2024-01-11T10:01:37;766.43;;;685.67;;
57025;SDS011;43961;52.940;6.834;2024-01-11T10:04:03;757.47;;;678.40;;
57025;SDS011;43961;52.940;6.834;2024-01-11T10:06:30;675.70;;;430.70;;
57025;SDS011;43961;52.940;6.834;2024-01-11T10:08:59;594.20;;;276.03;;
57025;SDS011;43961;52.940;6.834;2024-01-11T10:11:24;624.40;;;330.47;;
57025;SDS011;43961;52.940;6.834;2024-01-11T10:13:55;606.63;;;317.37;;
57025;SDS011;43961;52.940;6.834;2024-01-11T10:16:22;428.80;;;205.00;;
57025;SDS011;43961;52.940;6.834;2024-01-11T10:18:47;429.77;;;205.83;;
57025;SDS011;43961;52.940;6.834;2024-01-11T10:21:13;408.43;;;192.07;;
57025;SDS011;43961;52.940;6.834;2024-01-11T10:26:05;503.17;;;232.47;;
57025;SDS011;43961;52.940;6.834;2024-01-11T10:28:32;506.40;;;240.87;;
57025;SDS011;43961;52.940;6.834;2024-01-11T10:31:02;533.57;;;253.27;;
57025;SDS011;43961;52.940;6.834;2024-01-11T10:33:33;582.60;;;277.20;;
57025;SDS011;43961;52.940;6.834;2024-01-11T10:35:59;632.80;;;297.97;;
57025;SDS011;43961;52.940;6.834;2024-01-11T10:38:25;652.20;;;316.17;;
57025;SDS011;43961;52.940;6.834;2024-01-11T10:40:52;568.67;;;277.87;;
57025;SDS011;43961;52.940;6.834;2024-01-11T10:45:48;572.30;;;278.83;;
57025;SDS011;43961;52.940;6.834;2024-01-11T10:48:15;592.50;;;278.55;;
57025;SDS011;43961;52.940;6.834;2024-01-11T10:50:44;591.20;;;284.03;;
57025;SDS011;43961;52.940;6.834;2024-01-11T10:55:42;647.27;;;309.60;;
57025;SDS011;43961;52.940;6.834;2024-01-11T10:58:09;661.63;;;324.03;;
57025;SDS011;43961;52.940;6.834;2024-01-11T11:00:36;636.47;;;296.83;;
57025;SDS011;43961;52.940;6.834;2024-01-11T11:03:03;627.77;;;297.37;;
57025;SDS011;43961;52.940;6.834;2024-01-11T11:05:32;604.10;;;288.07;;
57025;SDS011;43961;52.940;6.834;2024-01-11T11:10:26;612.83;;;292.87;;
57025;SDS011;43961;52.940;6.834;2024-01-11T11:12:53;622.77;;;302.80;;
57025;SDS011;43961;52.940;6.834;2024-01-11T11:15:20;622.43;;;297.90;;
57025;SDS011;43961;52.940;6.834;2024-01-11T11:17:48;672.83;;;324.40;;
57025;SDS011;43961;52.940;6.834;2024-01-11T11:20:15;706.20;;;402.47;;
57025;SDS011;43961;52.940;6.834;2024-01-11T11:22:41;714.07;;;358.07;;
57025;SDS011;43961;52.940;6.834;2024-01-11T11:25:11;603.13;;;302.93;;
57025;SDS011;43961;52.940;6.834;2024-01-11T11:27:49;549.00;;;262.80;;
57025;SDS011;43961;52.940;6.834;2024-01-11T11:30:18;528.80;;;254.50;;
57025;SDS011;43961;52.940;6.834;2024-01-11T11:32:45;539.63;;;264.10;;
57025;SDS011;43961;52.940;6.834;2024-01-11T11:35:11;556.93;;;267.63;;
57025;SDS011;43961;52.940;6.834;2024-01-11T11:37:37;553.53;;;269.10;;
57025;SDS011;43961;52.940;6.834;2024-01-11T11:40:08;550.43;;;265.30;;
57025;SDS011;43961;52.940;6.834;2024-01-11T11:42:35;561.43;;;262.97;;
57025;SDS011;43961;52.940;6.834;2024-01-11T11:45:02;611.77;;;293.30;;
57025;SDS011;43961;52.940;6.834;2024-01-11T11:47:34;799.37;;;420.50;;
57025;SDS011;43961;52.940;6.834;2024-01-11T11:50:06;774.77;;;423.60;;
57025;SDS011;43961;52.940;6.834;2024-01-11T11:52:39;837.23;;;742.93;;
57025;SDS011;43961;52.940;6.834;2024-01-11T11:55:07;592.23;;;280.47;;
57025;SDS011;43961;52.940;6.834;2024-01-11T11:57:34;611.60;;;355.47;;
57025;SDS011;43961;52.940;6.834;2024-01-11T12:00:00;508.20;;;255.10;;
57025;SDS011;43961;52.940;6.834;2024-01-11T12:02:32;530.43;;;250.30;;
57025;SDS011;43961;52.940;6.834;2024-01-11T12:05:01;611.63;;;302.98;;
57025;SDS011;43961;52.940;6.834;2024-01-11T12:07:27;628.00;;;363.83;;
57025;SDS011;43961;52.940;6.834;2024-01-11T12:09:54;713.33;;;580.57;;
57025;SDS011;43961;52.940;6.834;2024-01-11T12:12:20;758.00;;;666.00;;
57025;SDS011;43961;52.940;6.834;2024-01-11T12:14:46;1045.13;;;952.23;;
57025;SDS011;43961;52.940;6.834;2024-01-11T12:17:14;986.47;;;896.83;;
57025;SDS011;43961;52.940;6.834;2024-01-11T12:19:39;1001.07;;;909.70;;
57025;SDS011;43961;52.940;6.834;2024-01-11T12:22:05;970.57;;;881.67;;
57025;SDS011;43961;52.940;6.834;2024-01-11T12:24:31;1014.83;;;922.80;;
57025;SDS011;43961;52.940;6.834;2024-01-11T12:26:59;1072.47;;;978.03;;
57025;SDS011;43961;52.940;6.834;2024-01-11T12:29:25;1046.63;;;954.20;;
57025;SDS011;43961;52.940;6.834;2024-01-11T12:31:54;974.70;;;885.42;;
57025;SDS011;43961;52.940;6.834;2024-01-11T12:34:22;981.28;;;892.40;;
57025;SDS011;43961;52.940;6.834;2024-01-11T12:36:48;998.07;;;907.00;;
57025;SDS011;43961;52.940;6.834;2024-01-11T12:39:14;1058.27;;;960.90;;
57025;SDS011;43961;52.940;6.834;2024-01-11T12:41:41;1145.97;;;999.90;;
57025;SDS011;43961;52.940;6.834;2024-01-11T12:44:08;1185.63;;;999.90;;
57025;SDS011;43961;52.940;6.834;2024-01-11T12:46:33;1172.20;;;999.90;;
57025;SDS011;43961;52.940;6.834;2024-01-11T12:48:59;1141.03;;;999.90;;
57025;SDS011;43961;52.940;6.834;2024-01-11T12:51:25;1076.87;;;974.87;;
57025;SDS011;43961;52.940;6.834;2024-01-11T12:53:51;1208.57;;;999.90;;
57025;SDS011;43961;52.940;6.834;2024-01-11T12:56:18;1313.63;;;999.90;;
57025;SDS011;43961;52.940;6.834;2024-01-11T12:58:46;1182.97;;;999.90;;
57025;SDS011;43961;52.940;6.834;2024-01-11T13:01:12;1159.00;;;999.90;;
57025;SDS011;43961;52.940;6.834;2024-01-11T13:03:39;1189.70;;;999.90;;
57025;SDS011;43961;52.940;6.834;2024-01-11T13:06:09;1276.87;;;999.90;;
57025;SDS011;43961;52.940;6.834;2024-01-11T13:08:36;1362.90;;;999.90;;
57025;SDS011;43961;52.940;6.834;2024-01-11T13:11:06;1397.10;;;999.90;;
57025;SDS011;43961;52.940;6.834;2024-01-11T13:13:33;1362.87;;;999.90;;
57025;SDS011;43961;52.940;6.834;2024-01-11T13:15:59;1398.77;;;999.90;;
57025;SDS011;43961;52.940;6.834;2024-01-11T13:18:25;1432.57;;;999.90;;
57025;SDS011;43961;52.940;6.834;2024-01-11T13:20:51;1448.27;;;999.90;;
57025;SDS011;43961;52.940;6.834;2024-01-11T13:23:17;1405.23;;;999.90;;
57025;SDS011;43961;52.940;6.834;2024-01-11T13:25:48;1199.67;;;999.90;;
57025;SDS011;43961;52.940;6.834;2024-01-11T13:28:15;1345.05;;;999.90;;
57025;SDS011;43961;52.940;6.834;2024-01-11T13:30:41;1313.80;;;999.90;;
57025;SDS011;43961;52.940;6.834;2024-01-11T13:33:08;1275.97;;;999.90;;
57025;SDS011;43961;52.940;6.834;2024-01-11T13:35:38;1349.77;;;999.90;;
57025;SDS011;43961;52.940;6.834;2024-01-11T13:38:05;1336.63;;;999.90;;
57025;SDS011;43961;52.940;6.834;2024-01-11T13:40:31;1344.37;;;999.90;;
57025;SDS011;43961;52.940;6.834;2024-01-11T13:42:57;1349.97;;;999.90;;
57025;SDS011;43961;52.940;6.834;2024-01-11T13:45:24;1391.20;;;999.90;;
57025;SDS011;43961;52.940;6.834;2024-01-11T13:47:50;1433.63;;;999.90;;
57025;SDS011;43961;52.940;6.834;2024-01-11T13:50:16;1462.60;;;999.90;;
57025;SDS011;43961;52.940;6.834;2024-01-11T13:52:43;1479.73;;;999.90;;
57025;SDS011;43961;52.940;6.834;2024-01-11T13:55:10;1471.35;;;999.90;;
57025;SDS011;43961;52.940;6.834;2024-01-11T13:57:36;1374.60;;;999.90;;
57025;SDS011;43961;52.940;6.834;2024-01-11T14:00:03;1407.70;;;999.90;;
57025;SDS011;43961;52.940;6.834;2024-01-11T14:02:30;1354.60;;;999.90;;
57025;SDS011;43961;52.940;6.834;2024-01-11T14:04:57;1393.03;;;999.90;;
57025;SDS011;43961;52.940;6.834;2024-01-11T14:07:23;1411.53;;;999.90;;
57025;SDS011;43961;52.940;6.834;2024-01-11T14:09:49;1386.17;;;999.90;;
57025;SDS011;43961;52.940;6.834;2024-01-11T14:12:15;1391.63;;;999.90;;
57025;SDS011;43961;52.940;6.834;2024-01-11T14:14:41;1426.43;;;999.90;;
57025;SDS011;43961;52.940;6.834;2024-01-11T14:17:08;1433.47;;;999.90;;
57025;SDS011;43961;52.940;6.834;2024-01-11T14:19:34;1444.27;;;999.90;;
57025;SDS011;43961;52.940;6.834;2024-01-11T14:22:00;1442.17;;;999.90;;
57025;SDS011;43961;52.940;6.834;2024-01-11T14:24:25;1434.57;;;999.90;;
57025;SDS011;43961;52.940;6.834;2024-01-11T14:26:51;1432.73;;;999.90;;
57025;SDS011;43961;52.940;6.834;2024-01-11T14:29:17;1408.50;;;999.90;;
57025;SDS011;43961;52.940;6.834;2024-01-11T14:31:42;1415.87;;;999.90;;
57025;SDS011;43961;52.940;6.834;2024-01-11T14:34:09;1434.83;;;999.90;;
57025;SDS011;43961;52.940;6.834;2024-01-11T14:36:36;1421.50;;;999.90;;
57025;SDS011;43961;52.940;6.834;2024-01-11T14:39:03;1399.75;;;999.90;;
57025;SDS011;43961;52.940;6.834;2024-01-11T14:41:32;1344.53;;;999.90;;
57025;SDS011;43961;52.940;6.834;2024-01-11T14:43:58;1296.37;;;999.90;;
57025;SDS011;43961;52.940;6.834;2024-01-11T14:46:25;1295.00;;;999.90;;
57025;SDS011;43961;52.940;6.834;2024-01-11T14:48:51;1335.60;;;999.90;;
57025;SDS011;43961;52.940;6.834;2024-01-11T14:51:17;1303.03;;;999.90;;
57025;SDS011;43961;52.940;6.834;2024-01-11T14:53:42;1362.07;;;999.90;;
57025;SDS011;43961;52.940;6.834;2024-01-11T14:56:08;1262.53;;;999.90;;
57025;SDS011;43961;52.940;6.834;2024-01-11T14:58:34;1198.70;;;999.90;;
57025;SDS011;43961;52.940;6.834;2024-01-11T15:00:59;1221.00;;;999.90;;
57025;SDS011;43961;52.940;6.834;2024-01-11T15:03:25;1159.30;;;999.90;;
57025;SDS011;43961;52.940;6.834;2024-01-11T15:05:54;1153.00;;;999.90;;
57025;SDS011;43961;52.940;6.834;2024-01-11T15:08:20;1067.20;;;976.00;;
57025;SDS011;43961;52.940;6.834;2024-01-11T15:10:46;1042.47;;;952.20;;
57025;SDS011;43961;52.940;6.834;2024-01-11T15:13:12;1031.13;;;941.33;;
57025;SDS011;43961;52.940;6.834;2024-01-11T15:15:37;907.23;;;821.73;;
57025;SDS011;43961;52.940;6.834;2024-01-11T15:18:04;812.20;;;733.70;;
57025;SDS011;43961;52.940;6.834;2024-01-11T15:20:31;723.37;;;645.53;;
57025;SDS011;43961;52.940;6.834;2024-01-11T15:22:56;854.50;;;772.47;;
57025;SDS011;43961;52.940;6.834;2024-01-11T15:25:22;853.93;;;773.17;;
57025;SDS011;43961;52.940;6.834;2024-01-11T15:27:49;999.03;;;910.30;;